Weather at Oakland Convention Center Heliport [CLOSED]

Public forecast

Using degrees Fahrenheit for public forecast. Weather courtesy of forecast.io.

Closest aviation weather report (METAR) to Oakland Convention Center Heliport

Closest report is Metropolitan Oakland International Airport, 5.5 nm (10.3 km) SSE.

2024/05/29 07:53 (retrieved 58 minutes ago)

KOAK 290753Z 23003KT 10SM CLR 13/10 A3007 RMK AO2 SLP183 T01280100 401830111

Closest aviation forecast (TAF) to Oakland Convention Center Heliport

Closest forecast is Metropolitan Oakland International Airport, 5.5 nm (10.3 km) SSE.

2024/05/29 06:39 (retrieved 2 hours ago)

TAF KOAK 290536Z 2906/3012 26005KT P6SM SKC FM291900 27013KT P6SM SKC FM300400 27004KT P6SM SKC